createdAt,value
2022-08-25T00:00:16.203Z,21.30
2022-08-25T00:02:54.935Z,21.30
2022-08-25T00:05:26.225Z,21.30
2022-08-25T00:07:55.292Z,21.30
2022-08-25T00:10:22.288Z,21.30
2022-08-25T00:12:49.276Z,21.20
2022-08-25T00:15:16.521Z,21.30
2022-08-25T00:17:43.659Z,21.20
2022-08-25T00:20:12.416Z,21.20
2022-08-25T00:22:39.557Z,21.20
2022-08-25T00:25:06.837Z,21.20
2022-08-25T00:27:34.095Z,21.20
2022-08-25T00:30:01.006Z,21.20
2022-08-25T00:32:28.201Z,21.20
2022-08-25T00:34:55.119Z,21.20
2022-08-25T00:37:22.250Z,21.20
2022-08-25T00:39:49.279Z,21.10
2022-08-25T00:42:16.583Z,21.10
2022-08-25T00:44:44.110Z,21.20
2022-08-25T00:47:11.146Z,21.20
2022-08-25T00:49:44.281Z,21.10
2022-08-25T00:52:15.134Z,21.10
2022-08-25T00:54:45.208Z,21.00
2022-08-25T00:57:13.381Z,21.00
2022-08-25T00:59:40.879Z,21.00
2022-08-25T01:02:10.212Z,21.00
2022-08-25T01:04:43.770Z,21.00
2022-08-25T01:07:17.864Z,21.00
2022-08-25T01:09:45.134Z,21.00
2022-08-25T01:12:12.193Z,21.00
2022-08-25T01:14:39.281Z,21.10
2022-08-25T01:17:06.941Z,21.10
2022-08-25T01:19:33.873Z,21.10
2022-08-25T01:22:01.293Z,21.10
2022-08-25T01:24:55.092Z,21.10
2022-08-25T01:27:22.331Z,21.10
2022-08-25T01:29:49.348Z,21.10
2022-08-25T01:37:34.861Z,21.20
2022-08-25T01:40:02.239Z,21.30
2022-08-25T01:42:34.142Z,21.30
2022-08-25T01:45:01.116Z,21.30
2022-08-25T01:47:27.972Z,21.30
2022-08-25T01:49:54.957Z,21.30
2022-08-25T01:52:26.119Z,21.30
2022-08-25T01:54:53.021Z,21.40
2022-08-25T01:57:20.017Z,21.40
2022-08-25T01:59:49.873Z,21.30
2022-08-25T02:02:18.292Z,21.30
2022-08-25T02:04:45.700Z,21.30
2022-08-25T02:07:20.110Z,21.30
2022-08-25T02:09:47.178Z,21.30
2022-08-25T02:12:14.128Z,21.20
2022-08-25T02:14:41.589Z,21.20
2022-08-25T02:17:08.841Z,21.20
2022-08-25T02:19:35.901Z,21.20
2022-08-25T02:22:02.973Z,21.20
2022-08-25T02:24:29.876Z,21.10
2022-08-25T02:26:58.293Z,21.10
2022-08-25T02:29:25.317Z,20.90
2022-08-25T02:31:52.313Z,20.90
2022-08-25T02:34:19.380Z,20.80
2022-08-25T02:36:46.677Z,20.80
2022-08-25T02:39:13.758Z,20.80
2022-08-25T02:41:40.793Z,20.80
2022-08-25T02:44:07.996Z,20.90
2022-08-25T02:46:35.203Z,20.90
2022-08-25T02:49:02.129Z,20.90
2022-08-25T02:51:32.167Z,20.90
2022-08-25T02:53:59.961Z,21.00
2022-08-25T02:56:26.920Z,21.00
2022-08-25T02:58:54.286Z,21.00
2022-08-25T03:01:22.146Z,20.90
2022-08-25T03:03:55.606Z,20.90
2022-08-25T03:06:25.782Z,20.90
2022-08-25T03:22:16.010Z,21.10
2022-08-25T03:24:43.022Z,21.10
2022-08-25T03:27:11.476Z,21.10
2022-08-25T03:29:39.486Z,21.10
2022-08-25T03:32:06.598Z,21.10
2022-08-25T03:34:33.653Z,21.10
2022-08-25T03:37:00.619Z,21.10
2022-08-25T03:39:27.610Z,21.10
2022-08-25T03:41:54.653Z,21.10
2022-08-25T03:44:21.702Z,21.00
2022-08-25T03:46:50.277Z,20.90
2022-08-25T03:49:20.011Z,20.90
2022-08-25T03:51:48.696Z,21.00
2022-08-25T03:54:17.192Z,21.00
2022-08-25T03:56:44.333Z,21.00
2022-08-25T03:59:11.580Z,21.10
2022-08-25T04:01:39.505Z,21.00
2022-08-25T04:04:07.598Z,21.10
2022-08-25T04:06:35.182Z,21.00
2022-08-25T04:09:02.367Z,20.90
2022-08-25T04:11:29.383Z,20.90
2022-08-25T04:13:57.727Z,20.90
2022-08-25T04:16:26.753Z,20.80
2022-08-25T04:18:55.044Z,20.80
2022-08-25T04:21:22.414Z,20.60
2022-08-25T04:23:52.904Z,20.40
2022-08-25T04:26:23.002Z,20.30
2022-08-25T04:28:50.021Z,20.30
2022-08-25T04:31:17.710Z,20.30
2022-08-25T04:33:45.658Z,20.30
2022-08-25T04:36:12.660Z,20.20
2022-08-25T04:38:40.359Z,20.10
2022-08-25T04:41:10.627Z,20.00
2022-08-25T04:43:37.938Z,20.00
2022-08-25T04:46:12.643Z,19.90
2022-08-25T04:48:40.186Z,20.00
2022-08-25T04:51:08.157Z,20.10
2022-08-25T04:53:36.419Z,20.20
2022-08-25T04:56:08.662Z,20.20
2022-08-25T04:58:35.935Z,20.20
2022-08-25T05:01:18.203Z,20.20
2022-08-25T05:03:48.686Z,20.00
2022-08-25T05:06:16.377Z,19.70
2022-08-25T05:08:45.851Z,19.40
2022-08-25T05:11:14.561Z,19.20
2022-08-25T05:13:41.504Z,19.20
2022-08-25T05:16:09.888Z,19.30
2022-08-25T05:18:38.765Z,19.30
2022-08-25T05:21:07.969Z,19.30
2022-08-25T05:23:35.017Z,19.30
2022-08-25T05:26:05.974Z,19.30
2022-08-25T05:28:33.450Z,19.30
2022-08-25T05:31:01.745Z,19.30
2022-08-25T05:33:32.983Z,19.30
2022-08-25T05:35:59.984Z,19.30
2022-08-25T05:38:26.955Z,19.30
2022-08-25T05:41:01.863Z,19.20
2022-08-25T05:43:29.095Z,19.20
2022-08-25T05:45:56.780Z,19.20
2022-08-25T05:48:23.741Z,19.20
2022-08-25T05:51:00.200Z,19.20
2022-08-25T05:53:27.777Z,19.30
2022-08-25T05:55:59.098Z,19.30
2022-08-25T05:58:28.473Z,19.30
2022-08-25T06:00:56.103Z,19.30
2022-08-25T06:03:23.181Z,19.20
2022-08-25T06:05:50.678Z,19.20
2022-08-25T06:08:17.832Z,19.10
2022-08-25T06:10:52.297Z,19.30
2022-08-25T06:13:21.614Z,19.20
2022-08-25T06:16:02.696Z,19.10
2022-08-25T06:18:29.694Z,19.00
2022-08-25T06:20:57.080Z,19.00
2022-08-25T06:23:24.266Z,18.90
2022-08-25T06:25:52.142Z,19.10
2022-08-25T06:28:19.474Z,19.00
2022-08-25T06:30:47.118Z,18.90
2022-08-25T06:33:14.788Z,19.00
2022-08-25T06:35:44.523Z,18.90
2022-08-25T06:38:11.660Z,18.90
2022-08-25T06:40:38.779Z,18.80
2022-08-25T06:43:08.965Z,18.90
2022-08-25T06:45:35.912Z,18.90
2022-08-25T06:48:03.168Z,18.80
2022-08-25T06:50:30.334Z,18.90
2022-08-25T06:52:57.348Z,19.20
2022-08-25T06:55:24.438Z,19.00
2022-08-25T06:57:54.156Z,19.00
2022-08-25T07:00:23.028Z,19.00
2022-08-25T07:02:58.779Z,19.00
2022-08-25T07:05:33.607Z,18.80
2022-08-25T07:08:07.797Z,18.80
2022-08-25T07:10:35.036Z,19.00
2022-08-25T07:13:03.669Z,19.00
2022-08-25T07:15:37.805Z,19.10
2022-08-25T07:18:04.988Z,19.00
2022-08-25T07:20:37.526Z,19.10
2022-08-25T07:23:04.938Z,19.10
2022-08-25T07:25:33.262Z,19.20
2022-08-25T07:28:00.198Z,19.10
2022-08-25T07:30:27.763Z,19.00
2022-08-25T07:32:55.022Z,19.10
2022-08-25T07:35:26.151Z,19.30
2022-08-25T07:37:58.140Z,19.30
2022-08-25T07:40:36.129Z,19.50
2022-08-25T07:43:05.354Z,19.40
2022-08-25T07:45:35.724Z,19.50
2022-08-25T07:48:12.028Z,19.40
2022-08-25T07:50:44.510Z,19.50
2022-08-25T07:53:12.477Z,19.30
2022-08-25T07:55:39.712Z,19.40
2022-08-25T07:58:07.358Z,19.30
2022-08-25T08:00:37.140Z,19.40
2022-08-25T08:03:10.044Z,19.30
2022-08-25T08:05:41.018Z,19.40
2022-08-25T08:08:08.678Z,19.50
2022-08-25T08:10:54.184Z,19.60
2022-08-25T08:13:23.695Z,19.50
2022-08-25T08:15:50.604Z,19.50
2022-08-25T08:18:17.581Z,19.60
2022-08-25T08:20:47.446Z,19.70
2022-08-25T08:23:15.637Z,19.60
2022-08-25T08:25:42.670Z,19.60
2022-08-25T08:28:10.908Z,19.50
2022-08-25T08:30:38.222Z,19.50
2022-08-25T08:33:11.734Z,19.50
2022-08-25T08:35:42.749Z,19.50
2022-08-25T08:38:14.461Z,19.40
2022-08-25T08:41:13.363Z,19.50
2022-08-25T08:43:42.578Z,19.40
2022-08-25T08:46:09.702Z,19.30
2022-08-25T08:49:00.695Z,19.20
2022-08-25T08:51:53.501Z,19.40
2022-08-25T08:54:23.086Z,19.30
2022-08-25T08:56:51.061Z,19.40
2022-08-25T08:59:30.451Z,19.30
2022-08-25T09:02:02.115Z,19.50
2022-08-25T09:04:48.796Z,19.30
2022-08-25T09:07:21.265Z,19.40
2022-08-25T09:09:48.407Z,19.30
2022-08-25T09:12:41.541Z,19.40
2022-08-25T09:15:54.803Z,19.20
2022-08-25T09:18:51.287Z,19.40
2022-08-25T09:21:41.022Z,19.20
2022-08-25T09:24:14.165Z,19.30
2022-08-25T09:27:03.658Z,19.00
2022-08-25T09:29:52.987Z,19.20
2022-08-25T09:32:24.346Z,19.00
2022-08-25T09:34:58.321Z,19.00
2022-08-25T09:37:25.481Z,19.00
2022-08-25T09:39:52.536Z,19.00
2022-08-25T09:42:23.761Z,18.80
2022-08-25T09:44:51.229Z,18.80
2022-08-25T09:47:18.151Z,18.80
2022-08-25T09:50:05.809Z,18.80
2022-08-25T09:52:41.346Z,18.90
2022-08-25T09:55:08.762Z,19.00
2022-08-25T09:57:43.117Z,18.90
2022-08-25T10:00:18.275Z,19.00
2022-08-25T10:03:00.601Z,18.90
2022-08-25T10:05:35.558Z,19.20
2022-08-25T10:08:05.335Z,19.20
2022-08-25T10:10:38.873Z,19.20
2022-08-25T10:13:22.821Z,19.30
2022-08-25T10:16:03.822Z,19.50
2022-08-25T10:18:30.799Z,19.60
2022-08-25T10:21:02.321Z,19.50
2022-08-25T10:23:30.693Z,19.60
2022-08-25T10:26:01.824Z,19.40
2022-08-25T10:28:39.729Z,19.30
2022-08-25T10:31:22.087Z,19.40
2022-08-25T10:33:54.698Z,19.50
2022-08-25T10:36:57.808Z,19.50
2022-08-25T10:39:36.749Z,19.80
2022-08-25T10:42:29.745Z,19.60
2022-08-25T10:45:34.968Z,19.50
2022-08-25T10:48:13.893Z,19.40
2022-08-25T10:51:26.555Z,19.50
2022-08-25T10:54:09.887Z,19.50
2022-08-25T10:56:43.304Z,19.80
2022-08-25T10:59:22.446Z,19.70
2022-08-25T11:02:12.607Z,19.70
2022-08-25T11:04:58.095Z,19.90
2022-08-25T11:07:39.204Z,20.00
2022-08-25T11:10:18.145Z,19.90
2022-08-25T11:12:57.191Z,20.00
2022-08-25T11:16:13.694Z,20.10
2022-08-25T11:18:46.924Z,20.20
2022-08-25T11:21:22.185Z,20.30
2022-08-25T11:24:26.924Z,20.30
2022-08-25T11:26:56.608Z,20.50
2022-08-25T11:29:26.243Z,20.40
2022-08-25T11:31:54.051Z,20.70
2022-08-25T11:34:21.485Z,20.70
2022-08-25T11:37:02.875Z,20.80
2022-08-25T11:40:05.268Z,20.80
2022-08-25T11:42:36.183Z,21.00
2022-08-25T11:45:31.058Z,21.00
2022-08-25T11:48:33.482Z,21.20
2022-08-25T11:51:11.795Z,21.30
2022-08-25T11:53:42.870Z,21.60
2022-08-25T11:56:34.610Z,21.60
2022-08-25T11:59:02.025Z,21.50
2022-08-25T12:01:43.172Z,21.30
2022-08-25T12:04:46.984Z,20.80
2022-08-25T12:07:20.203Z,20.60
2022-08-25T12:09:53.610Z,20.50
2022-08-25T12:12:36.859Z,20.40
2022-08-25T12:15:25.561Z,20.40
2022-08-25T12:18:11.479Z,20.40
2022-08-25T12:21:03.278Z,20.30
2022-08-25T12:23:33.152Z,20.30
2022-08-25T12:26:11.054Z,20.70
2022-08-25T12:28:48.081Z,21.00
2022-08-25T12:31:42.466Z,21.20
2022-08-25T12:34:30.607Z,21.40
2022-08-25T12:37:15.183Z,21.50
2022-08-25T12:39:51.272Z,21.80
2022-08-25T12:42:32.623Z,22.00
2022-08-25T12:45:14.403Z,21.80
2022-08-25T12:47:47.654Z,21.80
2022-08-25T12:50:56.200Z,21.80
2022-08-25T12:53:25.780Z,21.90
2022-08-25T12:55:55.182Z,21.90
2022-08-25T12:58:22.747Z,21.80
2022-08-25T13:01:20.190Z,22.00
2022-08-25T13:04:19.955Z,21.90
2022-08-25T13:07:16.071Z,21.90
2022-08-25T13:10:20.330Z,21.80
2022-08-25T13:12:51.964Z,21.90
2022-08-25T13:15:41.087Z,22.10
2022-08-25T13:18:29.073Z,21.90
2022-08-25T13:21:18.348Z,21.90
2022-08-25T13:23:50.356Z,22.00
2022-08-25T13:26:30.330Z,22.00
2022-08-25T13:29:13.796Z,21.90
2022-08-25T13:31:57.186Z,21.90
2022-08-25T13:34:34.570Z,22.60
2022-08-25T13:37:37.567Z,23.20
2022-08-25T13:40:37.818Z,23.10
2022-08-25T13:43:08.046Z,22.90
2022-08-25T13:45:43.199Z,23.30
2022-08-25T13:48:21.071Z,23.70
2022-08-25T13:50:52.623Z,24.30
2022-08-25T13:53:30.544Z,24.60
2022-08-25T13:55:59.717Z,24.90
2022-08-25T13:58:39.335Z,25.20
2022-08-25T14:01:49.391Z,25.50
2022-08-25T14:04:51.177Z,26.00
2022-08-25T14:07:22.856Z,26.40
2022-08-25T14:10:06.083Z,26.80
2022-08-25T14:12:45.670Z,26.40
2022-08-25T14:15:18.403Z,26.20
2022-08-25T14:20:28.964Z,25.60
2022-08-25T14:23:18.846Z,25.30
2022-08-25T14:25:47.088Z,25.00
2022-08-25T14:28:16.553Z,24.80
2022-08-25T14:30:52.233Z,24.70
2022-08-25T14:33:23.978Z,25.00
2022-08-25T14:35:52.428Z,25.00
2022-08-25T14:38:20.828Z,24.80
2022-08-25T14:40:48.267Z,24.50
2022-08-25T14:43:16.760Z,24.40
2022-08-25T14:45:45.316Z,24.30
2022-08-25T14:48:26.138Z,24.30
2022-08-25T14:50:54.371Z,24.20
2022-08-25T14:53:21.337Z,24.30
2022-08-25T14:55:49.401Z,24.20
2022-08-25T14:58:18.706Z,24.20
2022-08-25T15:00:53.131Z,24.40
2022-08-25T15:03:47.469Z,24.50
2022-08-25T15:06:16.504Z,25.20
2022-08-25T15:09:03.368Z,25.90
2022-08-25T15:11:30.699Z,26.50
2022-08-25T15:13:58.520Z,26.50
2022-08-25T15:16:37.069Z,26.50
2022-08-25T15:19:07.130Z,26.20
2022-08-25T15:21:35.556Z,25.50
2022-08-25T15:24:03.799Z,24.90
2022-08-25T15:26:31.316Z,24.80
2022-08-25T15:28:59.491Z,24.40
2022-08-25T15:31:26.722Z,24.10
2022-08-25T15:33:53.956Z,23.80
2022-08-25T15:36:22.882Z,23.70
2022-08-25T15:38:51.637Z,23.60
2022-08-25T15:41:18.731Z,23.50
2022-08-25T15:43:45.714Z,23.50
2022-08-25T15:46:15.666Z,23.40
2022-08-25T15:48:42.837Z,24.40
2022-08-25T15:51:10.310Z,24.50
2022-08-25T15:53:37.299Z,24.30
2022-08-25T15:56:07.621Z,23.90
2022-08-25T15:58:35.511Z,23.60
2022-08-25T16:01:05.486Z,23.20
2022-08-25T16:03:36.579Z,22.90
2022-08-25T16:06:09.579Z,22.70
2022-08-25T16:08:39.435Z,22.50
2022-08-25T16:11:26.405Z,22.60
2022-08-25T16:13:54.898Z,22.50
2022-08-25T16:16:23.145Z,22.40
2022-08-25T16:18:51.427Z,22.30
2022-08-25T16:21:23.149Z,22.30
2022-08-25T16:24:01.221Z,22.20
2022-08-25T16:26:29.944Z,22.20
2022-08-25T16:28:56.850Z,22.20
2022-08-25T16:31:24.297Z,22.00
2022-08-25T16:33:54.700Z,22.00
2022-08-25T16:36:27.209Z,22.00
2022-08-25T16:38:55.667Z,21.90
2022-08-25T16:41:24.969Z,21.90
2022-08-25T16:43:52.113Z,21.80
2022-08-25T16:46:20.617Z,21.70
2022-08-25T16:48:47.857Z,21.70
2022-08-25T16:51:22.523Z,21.70
2022-08-25T16:54:08.947Z,21.70
2022-08-25T16:56:40.319Z,21.60
2022-08-25T16:59:07.565Z,21.40
2022-08-25T17:01:35.732Z,21.30
2022-08-25T17:04:03.655Z,21.20
2022-08-25T17:06:34.007Z,21.10
2022-08-25T17:09:01.495Z,21.10
2022-08-25T17:11:32.824Z,21.10
2022-08-25T17:14:00.821Z,21.10
2022-08-25T17:16:32.419Z,21.10
2022-08-25T17:19:05.591Z,21.00
2022-08-25T17:21:36.730Z,21.00
2022-08-25T17:24:04.857Z,21.00
2022-08-25T17:26:32.231Z,21.00
2022-08-25T17:29:00.621Z,21.00
2022-08-25T17:31:28.499Z,20.90
2022-08-25T17:34:04.447Z,20.90
2022-08-25T17:36:31.965Z,21.00
2022-08-25T17:38:59.331Z,21.10
2022-08-25T17:41:26.482Z,21.00
2022-08-25T17:43:53.697Z,20.90
2022-08-25T17:46:24.479Z,20.80
2022-08-25T17:48:51.719Z,20.80
2022-08-25T17:51:18.930Z,20.80
2022-08-25T17:53:46.934Z,20.70
2022-08-25T17:56:16.132Z,20.70
2022-08-25T17:58:43.225Z,20.60
2022-08-25T18:01:22.368Z,20.50
2022-08-25T18:03:50.069Z,20.40
2022-08-25T18:06:17.137Z,20.40
2022-08-25T18:08:44.698Z,20.30
2022-08-25T18:11:20.155Z,20.20
2022-08-25T18:13:47.231Z,20.20
2022-08-25T18:16:17.514Z,20.20
2022-08-25T18:18:44.851Z,20.10
2022-08-25T18:21:16.530Z,20.00
2022-08-25T18:23:44.081Z,19.90
2022-08-25T18:26:13.056Z,19.90
2022-08-25T18:28:40.517Z,19.90
2022-08-25T18:31:12.432Z,19.90
2022-08-25T18:33:42.251Z,19.80
2022-08-25T18:36:09.963Z,19.70
2022-08-25T18:38:58.126Z,19.70
2022-08-25T18:41:26.515Z,19.70
2022-08-25T18:43:53.578Z,19.70
2022-08-25T18:46:22.698Z,19.70
2022-08-25T18:48:52.591Z,19.70
2022-08-25T18:51:23.153Z,19.60
2022-08-25T18:53:51.131Z,19.60
2022-08-25T18:56:22.648Z,19.50
2022-08-25T18:58:49.729Z,19.50
2022-08-25T19:01:17.220Z,19.40
2022-08-25T19:03:45.520Z,19.30
2022-08-25T19:06:12.466Z,19.30
2022-08-25T19:08:42.083Z,19.30
2022-08-25T19:11:09.933Z,19.30
2022-08-25T19:13:37.770Z,19.30
2022-08-25T19:16:20.207Z,19.30
2022-08-25T19:18:49.082Z,19.30
2022-08-25T19:21:22.829Z,19.30
2022-08-25T19:23:51.335Z,19.30
2022-08-25T19:26:19.451Z,19.30
2022-08-25T19:28:48.669Z,19.20
2022-08-25T19:31:18.363Z,19.20
2022-08-25T19:33:47.054Z,19.20
2022-08-25T19:36:14.435Z,19.20
2022-08-25T19:38:41.735Z,19.20
2022-08-25T19:41:13.000Z,19.20
2022-08-25T19:43:56.729Z,19.20
2022-08-25T19:46:35.579Z,19.20
2022-08-25T19:49:17.144Z,19.10
2022-08-25T19:51:47.077Z,19.10
2022-08-25T19:54:20.758Z,19.10
2022-08-25T19:56:54.354Z,19.10
2022-08-25T19:59:34.282Z,19.00
2022-08-25T20:02:15.252Z,19.00
2022-08-25T20:04:49.649Z,19.00
2022-08-25T20:07:18.922Z,19.00
2022-08-25T20:09:46.671Z,19.00
2022-08-25T20:14:41.366Z,19.00
2022-08-25T20:17:14.606Z,19.00
2022-08-25T20:19:52.645Z,19.00
2022-08-25T20:22:25.006Z,19.00
2022-08-25T20:24:56.112Z,19.00
2022-08-25T20:27:28.188Z,19.00
2022-08-25T20:29:55.363Z,19.00
2022-08-25T20:32:23.690Z,19.00
2022-08-25T20:34:53.301Z,19.00
2022-08-25T20:37:22.745Z,19.00
2022-08-25T20:39:50.010Z,19.00
2022-08-25T20:42:19.412Z,19.00
2022-08-25T20:44:47.404Z,19.00
2022-08-25T20:47:15.406Z,18.90
2022-08-25T20:49:45.737Z,18.80
2022-08-25T20:52:13.761Z,18.80
2022-08-25T20:54:49.454Z,18.80
2022-08-25T20:57:24.451Z,18.80
2022-08-25T20:59:53.212Z,18.70
2022-08-25T21:02:20.377Z,18.70
2022-08-25T21:04:48.937Z,18.60
2022-08-25T21:07:17.750Z,18.50
2022-08-25T21:09:45.029Z,18.50
2022-08-25T21:12:12.235Z,18.30
2022-08-25T21:14:41.015Z,18.20
2022-08-25T21:17:09.246Z,18.10
2022-08-25T21:19:39.173Z,18.10
2022-08-25T21:22:07.582Z,18.00
2022-08-25T21:24:34.754Z,18.00
2022-08-25T21:27:03.891Z,17.90
2022-08-25T21:29:32.836Z,17.90
2022-08-25T21:32:00.278Z,17.90
2022-08-25T21:34:31.014Z,17.80
2022-08-25T21:36:59.300Z,17.70
2022-08-25T21:39:28.262Z,17.70
2022-08-25T21:41:56.618Z,17.60
2022-08-25T21:44:23.824Z,17.60
2022-08-25T21:46:54.155Z,17.50
2022-08-25T21:49:22.142Z,17.50
2022-08-25T21:51:59.177Z,17.50
2022-08-25T21:54:28.803Z,17.40
2022-08-25T21:56:59.886Z,17.40
2022-08-25T21:59:31.978Z,17.40
2022-08-25T22:02:03.896Z,17.30
2022-08-25T22:04:32.906Z,17.30
2022-08-25T22:07:03.044Z,17.30
2022-08-25T22:09:30.754Z,17.20
2022-08-25T22:11:58.705Z,17.20
2022-08-25T22:14:26.507Z,17.20
2022-08-25T22:16:54.482Z,17.10
2022-08-25T22:19:22.699Z,17.10
2022-08-25T22:21:50.319Z,17.10
2022-08-25T22:24:18.111Z,17.00
2022-08-25T22:26:47.354Z,17.00
2022-08-25T22:29:23.235Z,16.90
2022-08-25T22:31:53.007Z,16.90
2022-08-25T22:34:30.492Z,16.90
2022-08-25T22:36:59.912Z,16.80
2022-08-25T22:39:27.413Z,16.80
2022-08-25T22:41:54.424Z,16.80
2022-08-25T22:44:23.312Z,16.70
2022-08-25T22:46:50.466Z,16.70
2022-08-25T22:49:17.904Z,16.70
2022-08-25T22:51:44.834Z,16.70
2022-08-25T22:54:15.305Z,16.60
2022-08-25T22:56:42.508Z,16.60
2022-08-25T22:59:11.886Z,16.60
2022-08-25T23:01:39.719Z,16.60
2022-08-25T23:04:07.176Z,16.60
2022-08-25T23:06:37.267Z,16.60
2022-08-25T23:09:05.570Z,16.50
2022-08-25T23:11:32.636Z,16.50
2022-08-25T23:14:00.966Z,16.40
2022-08-25T23:16:28.655Z,16.40
2022-08-25T23:18:55.658Z,16.40
2022-08-25T23:21:44.544Z,16.40
2022-08-25T23:24:11.890Z,16.40
2022-08-25T23:26:42.395Z,16.30
2022-08-25T23:29:18.663Z,16.30
2022-08-25T23:31:46.667Z,16.30
2022-08-25T23:34:14.224Z,16.30
2022-08-25T23:36:41.314Z,16.30
2022-08-25T23:39:09.332Z,16.30
2022-08-25T23:41:37.055Z,16.30
2022-08-25T23:44:05.770Z,16.20
2022-08-25T23:46:35.097Z,16.20
2022-08-25T23:49:03.954Z,16.10
2022-08-25T23:51:33.675Z,16.10
2022-08-25T23:54:04.172Z,16.10
2022-08-25T23:56:31.421Z,16.00
2022-08-25T23:58:58.985Z,16.00
